Time;durP1;ratioP1;P1;durP2;ratioP2;P2;SDS_P1;SDS_P2;PMS_P1;PMS_P2;Temp;Humidity;BMP_temperature;BMP_pressure;BME280_temperature;BME280_humidity;BME280_pressure;Samples;Min_cycle;Max_cycle;Signal;HPM_P1;HPM_P2
2023/03/08 00:02:08;;;;;;;15.93;12.13;;;;;;;4.93;55.80;97682.16;5108676;28;20179;-74
2023/03/08 00:04:35;;;;;;;18.13;11.38;;;;;;;4.95;55.92;97675.88;5107903;28;20062;-73
2023/03/08 00:07:01;;;;;;;15.95;11.85;;;;;;;5.00;55.59;97678.25;5108666;28;20035;-73
2023/03/08 00:09:29;;;;;;;13.88;10.55;;;;;;;5.02;55.36;97679.00;5108628;28;20153;-72
2023/03/08 00:11:57;;;;;;;17.55;11.23;;;;;;;5.04;55.01;97675.34;5107201;28;20036;-74
2023/03/08 00:14:23;;;;;;;14.50;10.38;;;;;;;5.07;54.90;97672.53;5107298;28;20028;-73
2023/03/08 00:16:50;;;;;;;15.07;10.95;;;;;;;5.10;54.64;97685.47;5107983;28;20036;-73
2023/03/08 00:19:17;;;;;;;14.43;11.05;;;;;;;5.12;54.40;97672.25;5107397;28;20040;-74
2023/03/08 00:21:44;;;;;;;15.10;11.02;;;;;;;4.58;54.46;97593.19;5107669;28;20212;-74
2023/03/08 00:24:11;;;;;;;16.45;10.90;;;;;;;5.16;54.08;97684.25;5108168;28;20036;-74
2023/03/08 00:26:38;;;;;;;15.50;11.27;;;;;;;5.17;54.05;97685.13;5107933;28;20036;-73
2023/03/08 00:29:06;;;;;;;14.10;10.85;;;;;;;5.17;53.56;97685.97;5108426;28;20036;-73
2023/03/08 00:31:33;;;;;;;15.05;11.40;;;;;;;4.33;53.07;97543.94;5107846;28;20036;-73
2023/03/08 00:33:59;;;;;;;13.77;10.38;;;;;;;5.24;53.35;97684.66;5107826;28;20048;-73
2023/03/08 00:36:26;;;;;;;12.93;9.77;;;;;;;5.25;53.35;97693.38;5107686;28;20046;-73
2023/03/08 00:38:53;;;;;;;15.05;11.10;;;;;;;5.12;53.20;97677.50;5089975;28;20032;-73
2023/03/08 00:41:20;;;;;;;12.35;9.77;;;;;;;4.88;52.32;97636.94;5108128;28;20052;-74
2023/03/08 00:43:47;;;;;;;13.80;10.20;;;;;;;5.28;52.57;97694.03;5107547;28;20032;-73
2023/03/08 00:46:15;;;;;;;14.65;10.38;;;;;;;5.29;51.91;97714.13;5106687;28;20036;-73
2023/03/08 00:48:43;;;;;;;13.20;9.52;;;;;;;4.93;51.91;97624.41;5108116;28;20050;-73
2023/03/08 00:51:13;;;;;;;12.93;9.88;;;;;;;5.32;51.41;97690.28;5107714;28;20052;-73
2023/03/08 00:53:40;;;;;;;11.70;8.90;;;;;;;5.33;51.90;97686.72;5106685;28;20101;-73
2023/03/08 00:56:07;;;;;;;12.98;7.75;;;;;;;4.84;51.17;97604.75;5107312;28;20075;-73
2023/03/08 00:58:34;;;;;;;11.18;8.23;;;;;;;5.35;51.15;97684.84;5107029;28;20043;-72
2023/03/08 01:01:01;;;;;;;12.27;8.00;;;;;;;5.12;51.26;97636.34;5106530;28;20040;-72
2023/03/08 01:03:29;;;;;;;11.75;7.93;;;;;;;5.38;50.81;97679.41;5107476;28;20104;-71
2023/03/08 01:05:57;;;;;;;9.63;7.25;;;;;;;4.75;50.84;97584.31;5106896;28;20032;-73
2023/03/08 01:08:25;;;;;;;10.10;7.13;;;;;;;5.31;50.22;97669.38;5107685;28;20042;-74
2023/03/08 01:10:56;;;;;;;9.52;6.88;;;;;;;5.41;50.62;97663.47;5106183;28;20050;-74
2023/03/08 01:13:25;;;;;;;11.05;7.35;;;;;;;4.99;50.26;97605.66;5107037;28;20054;-73
2023/03/08 01:15:51;;;;;;;11.55;7.20;;;;;;;5.40;50.02;97671.44;5107041;28;20032;-73
2023/03/08 01:18:18;;;;;;;8.75;7.13;;;;;;;5.39;49.82;97673.22;5107212;28;20058;-73
2023/03/08 01:20:55;;;;;;;10.15;7.18;;;;;;;5.39;48.88;97675.84;5106035;28;20044;-73
2023/03/08 01:23:22;;;;;;;8.48;6.93;;;;;;;5.41;50.36;97699.41;5106531;28;20051;-73
2023/03/08 01:25:49;;;;;;;8.77;7.18;;;;;;;5.17;50.27;97640.47;5106974;28;20051;-73
2023/03/08 01:28:15;;;;;;;12.95;7.20;;;;;;;5.40;50.07;97692.44;5105928;28;20040;-73
2023/03/08 01:30:42;;;;;;;8.98;6.47;;;;;;;5.41;50.40;97684.47;5105814;28;20040;-73
2023/03/08 01:33:09;;;;;;;9.85;7.18;;;;;;;5.20;50.53;97638.50;5106713;28;20047;-73
2023/03/08 01:35:37;;;;;;;8.95;6.93;;;;;;;5.41;50.39;97662.63;5107272;28;20103;-73
2023/03/08 01:38:05;;;;;;;11.75;8.23;;;;;;;5.40;50.47;97664.41;5105786;28;20070;-73
2023/03/08 01:40:33;;;;;;;11.35;7.32;;;;;;;3.84;50.13;97433.22;5105644;28;20208;-73
2023/03/08 01:43:11;;;;;;;8.40;7.15;;;;;;;5.38;49.18;97682.03;5105963;28;20032;-72
2023/03/08 01:46:05;;;;;;;8.50;6.47;;;;;;;5.38;49.05;97686.44;5106443;28;20036;-72
2023/03/08 01:48:37;;;;;;;12.82;8.20;;;;;;;5.37;50.35;97684.75;5106884;28;20050;-72
2023/03/08 01:51:06;;;;;;;9.73;7.43;;;;;;;5.37;50.57;97708.41;5105612;28;20040;-73
2023/03/08 01:53:37;;;;;;;9.18;7.07;;;;;;;5.35;50.02;97684.00;5106787;28;20035;-72
2023/03/08 01:56:06;;;;;;;10.93;8.20;;;;;;;5.35;50.40;97669.09;5105243;28;20044;-72
2023/03/08 01:58:33;;;;;;;11.20;7.68;;;;;;;5.33;50.72;97668.34;5106164;28;20055;-72
2023/03/08 02:01:00;;;;;;;11.18;7.57;;;;;;;5.33;50.83;97685.88;5106522;28;20205;-73
2023/03/08 02:03:27;;;;;;;9.82;7.63;;;;;;;5.16;51.05;97646.66;5106396;28;20040;-73
2023/03/08 02:05:54;;;;;;;12.82;7.30;;;;;;;5.34;50.85;97682.31;5106297;28;20040;-72
2023/03/08 02:08:21;;;;;;;10.27;7.82;;;;;;;5.33;51.05;97681.47;5106600;28;20050;-72
2023/03/08 02:10:50;;;;;;;11.75;8.27;;;;;;;5.31;51.18;97682.50;5106372;28;20044;-72
2023/03/08 02:13:20;;;;;;;8.90;7.43;;;;;;;5.30;51.16;97676.41;5105092;28;20311;-72
2023/03/08 02:15:46;;;;;;;11.68;8.57;;;;;;;5.29;51.20;97684.38;5105914;28;20036;-72
2023/03/08 02:18:13;;;;;;;12.07;8.10;;;;;;;5.30;51.35;97684.28;5106181;28;20173;-72
2023/03/08 02:20:41;;;;;;;11.90;7.65;;;;;;;5.32;51.29;97686.81;5106381;28;20111;-71
2023/03/08 02:23:11;;;;;;;12.80;8.70;;;;;;;5.30;51.09;97676.41;5105006;28;20326;-72
2023/03/08 02:25:38;;;;;;;9.93;7.28;;;;;;;5.27;51.22;97688.88;5106156;28;20044;-73
2023/03/08 02:28:05;;;;;;;12.82;9.18;;;;;;;5.30;51.43;97697.41;5104865;28;20304;-72
2023/03/08 02:30:36;;;;;;;12.77;7.53;;;;;;;4.57;51.52;97603.78;5105107;28;20059;-72
2023/03/08 02:33:03;;;;;;;10.77;7.93;;;;;;;5.30;51.46;97686.91;5104854;28;20032;-72
2023/03/08 02:35:30;;;;;;;10.20;7.93;;;;;;;5.31;51.80;97714.88;5105636;28;20044;-72
2023/03/08 02:37:57;;;;;;;11.73;8.60;;;;;;;5.30;51.59;97704.44;5105644;28;20039;-72
2023/03/08 02:40:25;;;;;;;14.25;9.57;;;;;;;5.28;52.00;97704.53;5105921;28;20162;-72
2023/03/08 02:42:54;;;;;;;12.23;8.98;;;;;;;5.29;51.96;97711.50;5105834;28;20059;-72
2023/03/08 02:45:21;;;;;;;10.80;7.95;;;;;;;5.28;52.15;97699.28;5105472;28;20070;-73
2023/03/08 02:47:48;;;;;;;14.98;8.70;;;;;;;5.27;51.96;97708.09;5106099;28;20129;-72
2023/03/08 02:50:16;;;;;;;10.98;8.30;;;;;;;5.26;52.21;97711.66;5104700;28;20046;-72
2023/03/08 02:52:42;;;;;;;11.48;8.48;;;;;;;5.28;51.96;97715.06;5087993;28;20047;-72
2023/03/08 02:55:10;;;;;;;11.38;8.55;;;;;;;5.25;52.10;97732.78;5105264;28;20052;-73
2023/03/08 02:57:38;;;;;;;10.32;7.85;;;;;;;5.24;52.11;97724.06;5104590;28;20059;-72
2023/03/08 03:00:06;;;;;;;12.50;8.40;;;;;;;5.25;52.18;97725.75;5105539;28;20165;-72
2023/03/08 03:02:33;;;;;;;14.05;9.38;;;;;;;5.21;51.83;97726.00;5104560;28;20040;-72
2023/03/08 03:04:59;;;;;;;10.82;8.32;;;;;;;5.22;52.09;97723.28;5104460;28;20326;-72
2023/03/08 03:07:26;;;;;;;12.45;8.25;;;;;;;5.22;51.98;97739.06;5104529;28;20047;-72
2023/03/08 03:09:53;;;;;;;11.18;7.90;;;;;;;5.21;51.92;97718.97;5105892;28;20206;-72
2023/03/08 03:12:20;;;;;;;13.13;8.32;;;;;;;4.96;51.69;97697.72;5105372;28;20046;-72
2023/03/08 03:14:48;;;;;;;15.82;9.07;;;;;;;5.22;51.93;97731.19;5105268;28;20036;-72
2023/03/08 03:17:14;;;;;;;11.20;8.65;;;;;;;5.18;51.52;97766.44;5105556;28;20310;-72
2023/03/08 03:19:41;;;;;;;12.45;8.77;;;;;;;5.20;51.83;97729.56;5105770;28;20056;-72
2023/03/08 03:22:08;;;;;;;12.10;8.65;;;;;;;5.01;51.72;97714.91;5105218;28;20044;-72
2023/03/08 03:24:35;;;;;;;11.27;8.93;;;;;;;4.76;51.80;97649.00;5104267;28;20039;-72
2023/03/08 03:27:01;;;;;;;11.02;8.77;;;;;;;5.21;51.75;97739.16;5105539;28;20050;-73
2023/03/08 03:29:28;;;;;;;12.85;9.00;;;;;;;5.20;51.69;97738.31;5104900;28;20101;-72
2023/03/08 03:31:56;;;;;;;12.80;9.98;;;;;;;4.98;51.56;97707.22;5104305;28;20046;-72
2023/03/08 03:34:23;;;;;;;12.32;7.93;;;;;;;5.20;51.49;97772.44;5105436;28;20059;-73
2023/03/08 03:36:50;;;;;;;10.88;8.35;;;;;;;5.20;51.47;97754.06;5105104;28;20040;-73
2023/03/08 03:39:17;;;;;;;11.75;8.35;;;;;;;5.18;51.19;97740.16;5104492;28;20052;-72
2023/03/08 03:41:43;;;;;;;11.43;8.88;;;;;;;5.20;51.45;97755.84;5108003;28;20089;-73
2023/03/08 03:44:10;;;;;;;12.35;8.73;;;;;;;5.22;51.15;97769.72;5109035;28;20116;-73
2023/03/08 03:46:37;;;;;;;12.98;9.35;;;;;;;5.20;51.20;97764.56;5108926;28;20314;-73
2023/03/08 03:49:05;;;;;;;12.85;8.95;;;;;;;5.23;51.30;97768.78;5109029;28;20050;-73
2023/03/08 03:51:32;;;;;;;11.57;8.70;;;;;;;5.21;51.08;97789.91;5108989;28;20283;-72
2023/03/08 03:53:59;;;;;;;11.23;8.50;;;;;;;5.22;51.14;97786.34;5108582;28;20040;-73
2023/03/08 03:56:27;;;;;;;13.30;8.60;;;;;;;5.21;51.00;97810.91;5107500;28;20044;-74
2023/03/08 03:58:54;;;;;;;11.00;8.55;;;;;;;5.22;50.77;97796.84;5109052;28;20051;-73
2023/03/08 04:01:24;;;;;;;12.82;9.68;;;;;;;5.22;50.76;97809.97;5108418;28;20048;-73
2023/03/08 04:03:52;;;;;;;13.57;8.70;;;;;;;5.23;50.43;97805.56;5108738;28;20173;-73
2023/03/08 04:06:22;;;;;;;12.77;9.30;;;;;;;5.24;50.54;97796.75;5107482;28;20300;-74
2023/03/08 04:08:52;;;;;;;13.43;9.45;;;;;;;5.20;50.50;97817.09;5108000;28;20183;-73
2023/03/08 04:11:21;;;;;;;12.98;9.05;;;;;;;4.64;50.57;97718.78;5108763;28;20056;-73
2023/03/08 04:13:48;;;;;;;13.18;8.75;;;;;;;5.25;50.34;97819.44;5108441;28;20303;-73
2023/03/08 04:16:17;;;;;;;13.30;9.48;;;;;;;4.91;50.42;97773.28;5108173;28;20046;-73
2023/03/08 04:18:44;;;;;;;11.88;9.13;;;;;;;5.24;50.34;97823.84;5108576;28;20052;-73
2023/03/08 04:21:11;;;;;;;13.85;9.60;;;;;;;2.03;50.24;97283.84;5108547;28;20036;-73
2023/03/08 04:23:39;;;;;;;12.48;9.23;;;;;;;5.24;49.81;97820.38;5107155;28;20040;-73
2023/03/08 04:26:07;;;;;;;12.15;8.70;;;;;;;4.66;50.21;97766.78;5107963;28;20055;-73
2023/03/08 04:28:35;;;;;;;13.25;10.57;;;;;;;5.25;49.79;97829.97;5108502;28;20032;-73
2023/03/08 04:31:11;;;;;;;14.55;9.93;;;;;;;5.26;48.68;97832.50;5108249;28;20043;-73
2023/03/08 04:33:38;;;;;;;10.63;8.80;;;;;;;5.28;49.52;97841.13;5106953;28;20189;-72
2023/03/08 04:36:05;;;;;;;12.90;8.50;;;;;;;5.29;49.28;97860.38;5106966;28;20058;-73
2023/03/08 04:38:32;;;;;;;10.90;7.65;;;;;;;5.03;49.24;97801.47;5107699;28;20107;-73
2023/03/08 04:41:09;;;;;;;12.80;8.45;;;;;;;4.82;49.34;97767.59;5107956;28;20259;-73
2023/03/08 04:43:35;;;;;;;10.02;8.30;;;;;;;5.29;49.01;97849.88;5107914;28;20058;-73
2023/03/08 04:46:03;;;;;;;12.90;8.40;;;;;;;5.27;49.45;97855.22;5107501;28;20044;-73
2023/03/08 04:48:30;;;;;;;12.07;9.10;;;;;;;5.28;49.55;97858.69;5107465;28;20124;-73
2023/03/08 04:50:59;;;;;;;11.82;8.32;;;;;;;5.28;49.55;97859.53;5105829;28;20204;-73
2023/03/08 04:53:27;;;;;;;10.75;8.77;;;;;;;5.28;49.64;97861.31;5106423;28;20043;-72
2023/03/08 04:55:54;;;;;;;12.77;8.43;;;;;;;5.28;49.64;97858.69;5107234;28;20059;-73
2023/03/08 04:58:23;;;;;;;11.40;8.88;;;;;;;5.27;49.57;97857.84;5107527;28;20055;-73
2023/03/08 05:00:49;;;;;;;12.85;8.20;;;;;;;5.26;49.67;97864.03;5107549;28;20223;-73
2023/03/08 05:03:16;;;;;;;11.52;8.77;;;;;;;5.26;49.69;97866.66;5106165;28;20331;-73
2023/03/08 05:05:47;;;;;;;11.80;8.35;;;;;;;4.52;49.41;97761.47;5107374;28;20054;-72
2023/03/08 05:08:14;;;;;;;19.13;10.07;;;;;;;5.26;49.57;97871.06;5107178;28;20040;-73
2023/03/08 05:10:46;;;;;;;12.50;9.38;;;;;;;5.25;49.53;97874.63;5107351;28;20115;-72
2023/03/08 05:13:13;;;;;;;13.10;10.02;;;;;;;5.25;49.75;97869.38;5106237;28;20050;-73
2023/03/08 05:15:41;;;;;;;11.85;9.15;;;;;;;5.24;49.54;97878.19;5107102;28;20043;-73
2023/03/08 05:18:08;;;;;;;14.18;9.90;;;;;;;5.25;49.77;97875.47;5106939;28;20258;-73
2023/03/08 05:20:34;;;;;;;12.05;8.90;;;;;;;5.26;49.55;97873.69;5106614;28;20040;-72
2023/03/08 05:23:01;;;;;;;16.63;10.13;;;;;;;5.09;49.54;97857.09;5106212;28;20307;-73
2023/03/08 05:25:29;;;;;;;12.60;9.40;;;;;;;5.25;49.78;97872.84;5106910;28;20093;-73
2023/03/08 05:27:56;;;;;;;12.30;9.00;;;;;;;5.24;49.75;97881.66;5107453;28;20048;-73
2023/03/08 05:30:23;;;;;;;12.15;9.30;;;;;;;5.25;49.74;97882.50;5106731;28;20039;-73
2023/03/08 05:32:51;;;;;;;14.25;9.20;;;;;;;-0.62;49.52;97219.50;5106694;28;20040;-73
2023/03/08 05:35:18;;;;;;;13.38;8.88;;;;;;;5.23;49.78;97882.59;5106792;28;20059;-73
2023/03/08 05:37:45;;;;;;;12.27;9.50;;;;;;;5.23;49.98;97876.47;5106913;28;20043;-73
2023/03/08 05:40:12;;;;;;;14.82;10.27;;;;;;;5.23;50.00;97879.94;5106449;28;20069;-73
2023/03/08 05:42:39;;;;;;;14.32;10.20;;;;;;;5.23;49.87;97879.94;5107345;28;20051;-73
2023/03/08 05:45:07;;;;;;;11.98;9.60;;;;;;;5.24;49.92;97875.53;5106642;28;20044;-73
2023/03/08 05:47:34;;;;;;;13.55;9.93;;;;;;;5.22;49.94;97886.13;5106366;28;20044;-73
2023/03/08 05:50:02;;;;;;;13.93;9.80;;;;;;;5.00;49.97;97852.38;5106295;28;20296;-73
2023/03/08 05:52:30;;;;;;;13.15;8.73;;;;;;;5.18;50.00;97889.88;5106283;28;20044;-73
2023/03/08 05:54:57;;;;;;;11.95;9.23;;;;;;;5.21;49.98;97894.94;5106183;28;20296;-73
2023/03/08 05:57:24;;;;;;;12.90;10.10;;;;;;;5.00;50.01;97865.50;5106731;28;20048;-73
2023/03/08 05:59:51;;;;;;;15.25;10.45;;;;;;;5.21;50.05;97899.38;5105225;28;20292;-73
2023/03/08 06:02:17;;;;;;;13.52;9.63;;;;;;;5.21;50.15;97891.47;5105596;28;20047;-73
2023/03/08 06:04:44;;;;;;;14.18;9.80;;;;;;;5.20;50.10;97895.88;5105970;28;20052;-73
2023/03/08 06:07:12;;;;;;;12.95;9.55;;;;;;;5.22;50.14;97898.44;5104995;28;20292;-73
2023/03/08 06:09:39;;;;;;;12.90;10.07;;;;;;;5.21;50.14;97902.84;5105907;28;20203;-73
2023/03/08 06:12:06;;;;;;;12.60;9.88;;;;;;;5.24;50.28;97907.06;5106173;28;20292;-73
2023/03/08 06:14:33;;;;;;;12.32;10.65;;;;;;;5.26;50.38;97910.47;5104731;28;20036;-73
2023/03/08 06:17:00;;;;;;;15.07;10.95;;;;;;;5.32;50.09;97910.09;5106036;28;20051;-73
2023/03/08 06:19:27;;;;;;;13.18;10.00;;;;;;;5.37;49.88;97901.03;5105997;28;20296;-73
2023/03/08 06:21:54;;;;;;;13.70;9.40;;;;;;;5.44;49.81;97906.78;5105716;28;20036;-73
2023/03/08 06:24:22;;;;;;;12.18;9.30;;;;;;;5.50;49.60;97902.94;5105475;28;20207;-73
2023/03/08 06:26:49;;;;;;;11.68;9.18;;;;;;;5.57;49.43;97906.91;5105954;28;20044;-73
2023/03/08 06:29:16;;;;;;;14.85;10.30;;;;;;;5.66;49.45;97907.22;5105578;28;20044;-73
2023/03/08 06:31:42;;;;;;;11.50;8.45;;;;;;;5.76;49.22;97905.75;5105850;28;20043;-73
2023/03/08 06:34:11;;;;;;;12.82;9.82;;;;;;;5.88;48.94;97904.19;5105313;28;20122;-73
2023/03/08 06:36:38;;;;;;;11.60;9.45;;;;;;;5.70;49.06;97878.97;5105731;28;20048;-73
2023/03/08 06:39:05;;;;;;;11.50;8.80;;;;;;;6.06;48.88;97918.88;5104507;28;20292;-73
2023/03/08 06:41:34;;;;;;;14.57;10.23;;;;;;;5.94;48.54;97893.31;5105461;28;20052;-73
2023/03/08 06:44:00;;;;;;;12.93;9.77;;;;;;;6.17;48.58;97927.91;5106028;28;20036;-73
2023/03/08 06:46:27;;;;;;;12.75;8.52;;;;;;;4.90;48.66;97750.59;5106035;28;20062;-73
2023/03/08 06:48:54;;;;;;;12.50;9.20;;;;;;;5.97;48.57;97890.50;5104991;28;20066;-73
2023/03/08 06:51:21;;;;;;;12.82;9.48;;;;;;;5.62;48.42;97826.03;5105971;28;20059;-73
2023/03/08 06:53:48;;;;;;;13.90;9.23;;;;;;;6.30;48.24;97934.97;5104640;28;20042;-73
2023/03/08 06:56:17;;;;;;;9.93;7.57;;;;;;;6.33;48.34;97931.31;5104529;28;20044;-73
2023/03/08 06:58:45;;;;;;;12.43;9.13;;;;;;;6.39;48.22;97928.31;5104573;28;20040;-73
2023/03/08 07:01:13;;;;;;;11.20;8.60;;;;;;;5.90;47.75;97818.19;5104536;28;20047;-73
2023/03/08 07:03:41;;;;;;;11.43;8.45;;;;;;;6.70;47.43;97899.16;5105307;28;20036;-73
2023/03/08 07:06:09;;;;;;;11.50;8.88;;;;;;;7.13;46.98;97936.00;5105328;28;20304;-73
2023/03/08 07:08:38;;;;;;;12.25;9.45;;;;;;;7.30;46.76;97927.00;5105264;28;20058;-72
2023/03/08 07:11:05;;;;;;;11.77;8.52;;;;;;;7.45;46.62;97925.19;5105399;28;20043;-73
2023/03/08 07:13:32;;;;;;;10.98;9.10;;;;;;;7.64;46.34;97928.31;5105410;28;20040;-73
2023/03/08 07:16:06;;;;;;;11.27;9.00;;;;;;;7.67;44.98;97888.56;5107137;28;20039;-73
2023/03/08 07:18:33;;;;;;;10.37;7.50;;;;;;;8.16;45.42;97917.75;5108572;28;20089;-73
2023/03/08 07:21:00;;;;;;;11.57;8.98;;;;;;;8.36;44.92;97903.19;5108402;28;20480;-73
2023/03/08 07:23:27;;;;;;;10.70;7.70;;;;;;;8.68;44.66;97917.66;5109710;28;20107;-73
2023/03/08 07:25:53;;;;;;;10.48;8.13;;;;;;;8.79;44.42;97898.41;5109131;28;20032;-73
2023/03/08 07:28:20;;;;;;;9.85;7.57;;;;;;;8.88;44.28;97892.47;5109303;28;20112;-73
2023/03/08 07:30:48;;;;;;;11.10;8.40;;;;;;;8.77;44.24;97865.97;5109227;28;20050;-73
2023/03/08 07:33:17;;;;;;;10.45;7.60;;;;;;;8.93;43.92;97849.84;5108727;28;20069;-73
2023/03/08 07:35:44;;;;;;;12.15;8.93;;;;;;;8.98;43.91;97843.28;5107845;28;20058;-73
2023/03/08 07:38:11;;;;;;;9.93;7.22;;;;;;;9.56;43.46;97889.31;5107955;28;20085;-73
2023/03/08 07:40:38;;;;;;;11.73;7.80;;;;;;;9.79;43.15;97884.94;5108720;28;20035;-73
2023/03/08 07:43:06;;;;;;;12.40;7.80;;;;;;;9.60;42.78;97824.63;5108425;28;20050;-74
2023/03/08 07:45:33;;;;;;;11.32;8.63;;;;;;;10.06;42.18;97868.78;5107789;28;20043;-74
2023/03/08 07:47:59;;;;;;;9.70;7.47;;;;;;;10.24;42.67;97863.88;5107696;28;20044;-74
2023/03/08 07:50:28;;;;;;;9.40;7.05;;;;;;;10.42;42.33;97851.84;5108569;28;20046;-74
2023/03/08 07:52:54;;;;;;;9.30;6.88;;;;;;;10.56;42.05;97861.34;5107645;28;20043;-73
2023/03/08 07:55:21;;;;;;;9.30;7.28;;;;;;;10.64;42.19;97853.66;5108418;28;20189;-74
2023/03/08 07:57:48;;;;;;;8.68;6.43;;;;;;;10.81;41.78;97865.59;5108361;28;20161;-74
2023/03/08 08:00:15;;;;;;;8.55;6.47;;;;;;;10.76;41.24;97839.41;5107620;28;20181;-74
2023/03/08 08:02:43;;;;;;;8.18;6.32;;;;;;;10.94;40.88;97828.34;5108766;28;20230;-73
2023/03/08 08:05:10;;;;;;;8.45;5.63;;;;;;;11.01;40.62;97832.19;5108212;28;20047;-74
2023/03/08 08:07:38;;;;;;;7.45;5.28;;;;;;;11.19;40.40;97852.75;5108513;28;20050;-74
2023/03/08 08:10:07;;;;;;;6.28;5.18;;;;;;;11.23;40.10;97853.34;5107254;28;20062;-74
2023/03/08 08:12:33;;;;;;;7.13;4.82;;;;;;;11.10;40.57;97824.31;5108048;28;20051;-74
2023/03/08 08:15:00;;;;;;;7.35;5.65;;;;;;;11.34;40.34;97850.66;5107184;28;20036;-74
2023/03/08 08:17:27;;;;;;;6.85;5.03;;;;;;;11.39;40.06;97837.84;5108528;28;20192;-74
2023/03/08 08:19:54;;;;;;;7.22;5.80;;;;;;;11.34;39.67;97816.16;5107083;28;20035;-74
2023/03/08 08:22:20;;;;;;;7.30;5.07;;;;;;;11.40;39.80;97818.31;5108611;28;20044;-74
2023/03/08 08:24:48;;;;;;;7.78;5.18;;;;;;;11.50;39.37;97837.81;5108406;28;20203;-74
2023/03/08 08:27:15;;;;;;;7.05;5.00;;;;;;;11.52;39.17;97827.06;5107839;28;20036;-74
2023/03/08 08:29:44;;;;;;;7.20;5.07;;;;;;;11.32;39.12;97788.94;5107550;28;20093;-74
2023/03/08 08:32:11;;;;;;;6.32;5.10;;;;;;;10.19;39.15;97606.59;5107813;28;20048;-74
2023/03/08 08:34:38;;;;;;;7.15;4.70;;;;;;;11.40;39.08;97810.34;5107637;28;20040;-74
2023/03/08 08:37:05;;;;;;;7.53;5.15;;;;;;;11.45;39.30;97818.78;5107620;28;20089;-74
2023/03/08 08:39:32;;;;;;;6.63;5.40;;;;;;;11.47;39.13;97808.88;5107837;28;20219;-74
2023/03/08 08:42:00;;;;;;;5.18;4.35;;;;;;;11.45;38.85;97808.16;5107814;28;20046;-74
2023/03/08 08:44:27;;;;;;;6.03;4.43;;;;;;;10.97;38.67;97737.97;5107523;28;20044;-74
2023/03/08 08:46:53;;;;;;;6.53;5.35;;;;;;;11.05;38.51;97746.97;5107012;28;20085;-74
2023/03/08 08:49:20;;;;;;;5.55;4.22;;;;;;;11.55;38.25;97826.81;5107544;28;20040;-73
2023/03/08 08:51:47;;;;;;;7.82;6.05;;;;;;;10.56;38.06;97662.69;5089393;28;20040;-73
2023/03/08 08:54:14;;;;;;;6.05;4.75;;;;;;;11.51;38.41;97820.91;5107239;28;20038;-74
2023/03/08 08:56:41;;;;;;;6.25;5.03;;;;;;;11.46;38.23;97831.06;5107493;28;20036;-73
2023/03/08 08:59:11;;;;;;;7.75;4.70;;;;;;;11.36;37.84;97832.81;5106231;28;20036;-73
2023/03/08 09:01:42;;;;;;;6.38;4.70;;;;;;;11.27;38.37;97843.31;5106236;28;20094;-74
2023/03/08 09:04:09;;;;;;;6.30;4.65;;;;;;;11.18;38.24;97834.31;5107287;28;20290;-73
2023/03/08 09:06:36;;;;;;;6.07;4.63;;;;;;;11.14;38.33;97844.31;5106033;28;20040;-73
2023/03/08 09:09:03;;;;;;;8.68;6.00;;;;;;;11.17;38.35;97838.78;5107033;28;20044;-74
2023/03/08 09:11:30;;;;;;;9.27;4.97;;;;;;;11.16;38.08;97842.38;5106909;28;20086;-74
2023/03/08 09:13:57;;;;;;;7.28;5.28;;;;;;;11.09;38.46;97841.19;5106841;28;20051;-73
2023/03/08 09:16:27;;;;;;;7.38;5.60;;;;;;;11.06;37.78;97836.16;5106781;28;20210;-73
2023/03/08 09:18:55;;;;;;;7.03;5.75;;;;;;;10.98;38.27;97822.66;5106905;28;20036;-73
2023/03/08 09:21:22;;;;;;;9.05;5.32;;;;;;;10.85;38.34;97827.28;5106669;28;20230;-73
2023/03/08 09:23:49;;;;;;;6.65;4.88;;;;;;;10.60;38.66;97801.88;5106016;28;20044;-74
2023/03/08 09:26:17;;;;;;;8.45;5.72;;;;;;;10.63;38.86;97816.69;5106954;28;20036;-73
2023/03/08 09:28:44;;;;;;;6.40;5.00;;;;;;;10.60;38.67;97825.72;5106344;28;20035;-73
2023/03/08 09:31:13;;;;;;;7.28;5.57;;;;;;;10.56;38.67;97830.41;5106882;28;20062;-74
2023/03/08 09:33:44;;;;;;;7.28;5.20;;;;;;;10.52;38.36;97823.66;5105400;28;20050;-73
2023/03/08 09:36:12;;;;;;;7.07;5.68;;;;;;;10.49;38.53;97815.97;5106759;28;20060;-74
2023/03/08 09:38:41;;;;;;;7.47;5.57;;;;;;;9.77;38.65;97706.09;5106295;28;20055;-73
2023/03/08 09:41:24;;;;;;;8.23;5.65;;;;;;;10.36;36.37;97825.00;5105682;28;20047;-72
2023/03/08 09:44:04;;;;;;;7.38;5.47;;;;;;;10.25;37.26;97821.38;5105618;28;20066;-73
2023/03/08 09:46:36;;;;;;;8.45;5.43;;;;;;;10.21;38.09;97814.66;5106904;28;20036;-73
2023/03/08 09:49:14;;;;;;;8.05;5.63;;;;;;;10.19;37.79;97805.13;5107009;28;20078;-73
2023/03/08 09:51:45;;;;;;;6.85;5.40;;;;;;;10.26;38.97;97807.19;5106277;28;20093;-74
2023/03/08 09:54:16;;;;;;;6.57;5.07;;;;;;;10.33;38.83;97794.31;5106692;28;20043;-73
2023/03/08 09:56:47;;;;;;;8.57;6.05;;;;;;;10.26;38.32;97806.34;5105258;28;20031;-73
2023/03/08 09:59:19;;;;;;;10.00;5.68;;;;;;;10.20;38.01;97802.38;5105318;28;20244;-73
2023/03/08 10:01:54;;;;;;;7.57;5.68;;;;;;;10.11;38.70;97789.84;5106019;28;20040;-74
2023/03/08 10:04:40;;;;;;;7.75;5.00;;;;;;;10.10;37.16;97793.47;5106620;28;20055;-73
2023/03/08 10:07:21;;;;;;;10.95;6.75;;;;;;;10.07;37.80;97788.41;5105634;28;20059;-73
2023/03/08 10:10:01;;;;;;;8.32;6.60;;;;;;;10.04;38.02;97783.34;5106177;28;20140;-74
2023/03/08 10:12:34;;;;;;;8.35;6.00;;;;;;;9.76;38.32;97752.88;5105218;28;20081;-73
2023/03/08 10:15:05;;;;;;;9.15;5.70;;;;;;;9.87;37.72;97782.00;5104964;28;20044;-73
2023/03/08 10:17:41;;;;;;;8.52;4.97;;;;;;;9.82;37.56;97776.22;5104972;28;20036;-74
2023/03/08 10:20:18;;;;;;;10.82;6.35;;;;;;;9.79;37.88;97771.16;5105458;28;20040;-73
2023/03/08 10:22:48;;;;;;;9.02;6.13;;;;;;;9.74;38.79;97769.84;5105906;28;20257;-74
2023/03/08 10:25:23;;;;;;;9.20;6.50;;;;;;;9.70;37.88;97771.88;5106229;28;20058;-74
2023/03/08 10:27:53;;;;;;;8.43;6.05;;;;;;;9.59;38.70;97782.44;5104970;28;20035;-74
2023/03/08 10:30:22;;;;;;;7.53;6.13;;;;;;;9.36;39.61;97738.34;5105528;28;20044;-74
2023/03/08 10:32:53;;;;;;;8.10;5.38;;;;;;;9.19;39.24;97723.72;5104610;28;20035;-74
2023/03/08 10:35:31;;;;;;;10.13;6.68;;;;;;;9.51;38.68;97764.50;5106104;28;20050;-74
2023/03/08 10:37:58;;;;;;;8.27;7.05;;;;;;;9.28;39.58;97746.84;5105626;28;20272;-74
2023/03/08 10:40:25;;;;;;;10.60;7.07;;;;;;;9.41;40.09;97782.03;5105671;28;20047;-74
2023/03/08 10:42:59;;;;;;;8.88;6.63;;;;;;;8.87;39.84;97699.72;5106001;28;20040;-74
2023/03/08 10:45:28;;;;;;;11.45;7.63;;;;;;;9.37;40.31;97762.03;5104537;28;20107;-74
2023/03/08 10:47:57;;;;;;;13.30;7.22;;;;;;;9.36;40.53;97763.00;5105048;28;20134;-74
2023/03/08 10:50:27;;;;;;;9.73;7.82;;;;;;;9.38;40.27;97749.66;5107285;28;20046;-74
2023/03/08 10:52:54;;;;;;;10.23;8.13;;;;;;;9.39;40.70;97731.03;5109854;28;20088;-74
2023/03/08 10:55:23;;;;;;;11.25;8.38;;;;;;;9.41;40.84;97738.88;5109422;28;20056;-74
2023/03/08 10:57:53;;;;;;;13.88;9.10;;;;;;;9.44;40.88;97728.91;5108754;28;20200;-74
2023/03/08 11:00:31;;;;;;;11.95;8.27;;;;;;;9.47;40.70;97704.88;5109569;28;20096;-73
2023/03/08 11:03:14;;;;;;;13.35;8.93;;;;;;;9.48;40.69;97695.97;5109435;28;20055;-73
2023/03/08 11:05:54;;;;;;;11.63;8.75;;;;;;;9.45;40.96;97690.09;5106824;28;20044;-73
2023/03/08 11:08:23;;;;;;;12.77;9.55;;;;;;;9.44;41.50;97680.47;5108478;28;20051;-74
2023/03/08 11:11:00;;;;;;;15.45;10.13;;;;;;;9.43;41.48;97676.13;5109594;28;20040;-74
2023/03/08 11:13:30;;;;;;;16.13;10.98;;;;;;;9.29;41.59;97629.59;5109806;28;20058;-74
2023/03/08 11:16:06;;;;;;;14.38;10.45;;;;;;;9.51;41.51;97657.88;5109597;28;20196;-73
2023/03/08 11:18:46;;;;;;;12.93;10.50;;;;;;;9.35;41.51;97597.38;5108494;28;20032;-74
2023/03/08 11:21:23;;;;;;;15.95;10.70;;;;;;;9.63;41.60;97630.47;5108293;28;20101;-74
2023/03/08 11:24:00;;;;;;;12.70;9.73;;;;;;;9.68;41.85;97606.31;5108958;28;20204;-74
2023/03/08 11:26:34;;;;;;;14.77;11.15;;;;;;;9.71;41.61;97598.13;5108099;28;20036;-74
2023/03/08 11:29:21;;;;;;;15.15;10.88;;;;;;;9.75;41.57;97581.88;5109206;28;20089;-74
2023/03/08 11:31:57;;;;;;;15.48;11.18;;;;;;;9.77;41.55;97579.13;5109290;28;20066;-74
2023/03/08 11:34:45;;;;;;;16.10;10.55;;;;;;;9.82;41.38;97583.09;5108783;28;20035;-73
2023/03/08 11:37:24;;;;;;;12.48;9.43;;;;;;;9.63;41.44;97559.06;5107967;28;20039;-74
2023/03/08 11:40:01;;;;;;;13.63;10.55;;;;;;;9.77;41.61;97582.59;5109277;28;20058;-74
2023/03/08 11:42:41;;;;;;;16.90;12.38;;;;;;;9.76;41.83;97559.75;5108326;28;20101;-74